Station: MOOMBA AP

  Atmospheric Gas Attenuation - ITU Rec 676-11   --------------- db/100km ---------------
Date Time Temp RH % AH g/m3 Dew Point Wind Direction Speed kph Gust kph Barometer mB Rainfall Since 9am 24GHz 47GHz 76GHz 122GHz 134GHz 241GHz
03 07:40 30 30 9.1 10.5 15 17 1013.6 0 19.9 22.4 34.3 89.9 85.7 295.9
03 07:30 29.4 30 8.81 10 15 22 1013.5 0 19.3 22.1 33.6 88.0 83.2 287.0
03 07:20 29 30 8.62 9.7 19 22 1013.5 0 18.9 22.0 33.1 86.8 81.5 281.2
03 07:10 28.4 31 8.62 9.6 11 15 1013.4 0 19.0 22.1 33.3 87.4 82.1 283.2
03 07:00 27.9 32 8.66 9.7 9 13 1013.2 0 19.1 22.3 33.7 88.2 83.1 286.4
03 06:50 27.6 32 8.51 9.4 11 13 1013.1 0 18.8 22.1 33.3 87.2 81.7 281.7
03 06:40 27.8 32 8.61 9.6 13 15 1013.1 0 19.0 22.2 33.5 87.9 82.6 284.8
03 06:30 28 31 8.43 9.3 15 20 1013 0 18.6 21.9 32.8 86.1 80.4 277.2
03 06:20 28.1 31 8.48 9.4 15 19 1012.8 0 18.7 22.0 33.0 86.4 80.9 278.8
03 06:10 28.6 30 8.43 9.3 13 15 1012.7 0 18.6 21.8 32.6 85.4 79.8 275.2
03 06:00 28.5 30 8.39 9.2 17 24 1012.7 0 18.5 21.7 32.5 85.2 79.5 274.0
03 05:50 28.7 30 8.48 9.4 19 22 1012.5 0 18.7 21.8 32.7 85.8 80.3 276.7
03 05:40 28 30 8.16 8.8 11 13 1012.4 0 18.0 21.5 31.9 83.7 77.5 266.9
03 05:30 27.4 31 8.16 8.8 11 17 1012.4 0 18.0 21.7 32.2 84.3 78.1 268.8
03 05:20 27.2 31 8.07 8.6 11 11 1012.1 0 17.9 21.6 31.9 83.7 77.3 266.0
03 05:00 27.5 31 8.2 8.9 2 7 1012 0 18.1 21.7 32.2 84.5 78.4 269.9
03 04:50 27.9 30 8.11 8.7 6 7 1011.7 0 17.9 21.5 31.8 83.3 77.0 265.2
03 04:40 28.3 29 8.02 8.6 13 15 1011.6 0 17.7 21.3 31.3 82.1 75.7 260.5
03 04:30 28.9 28 8 8.6 13 15 1011.7 0 17.7 21.1 31.1 81.3 74.9 257.9
03 04:20 29.3 27 7.88 8.4 13 15 1011.6 0 17.4 20.9 30.5 79.9 73.3 252.2
03 04:10 30.6 25 7.83 8.3 11 13 1011.5 0 17.2 20.5 29.9 78.3 71.6 246.5
03 04:00 30.4 25 7.75 8.2 9 11 1011.7 0 17.1 20.5 29.7 77.8 71.0 244.3
03 03:50 30.8 24 7.6 7.9 9 9 1011.5 0 16.8 20.2 29.1 76.2 69.1 237.7
03 03:40 30.3 25 7.71 8.1 11 13 1011.7 0 17.0 20.4 29.6 77.6 70.6 243.1
03 03:30 30.4 24 7.44 7.6 9 11 1011.7 0 16.4 20.1 28.8 75.2 67.8 233.2
03 03:20 30.3 25 7.71 8.1 9 11 1011.6 0 17.0 20.4 29.6 77.6 70.6 243.1
03 03:10 30.9 24 7.64 8 6 6 1011.5 0 16.8 20.2 29.2 76.4 69.4 238.8
03 03:00 30.5 25 7.79 8.3 19 33 1011.5 0 17.2 20.5 29.8 78.0 71.3 245.4
03 02:50 28.1 31 8.48 9.4 11 13 1011.3 0 18.7 21.9 32.9 86.3 80.8 278.4
03 02:40 27.8 31 8.34 9.1 0 0 1011.1 0 18.4 21.8 32.6 85.3 79.5 274.1
03 02:30 28 34 9.25 10.7 0 0 1011.3 0 20.3 23.0 35.5 93.2 89.3 308.5
03 02:20 28.1 31 8.48 9.4 0 0 1011.1 0 18.7 21.9 32.9 86.3 80.8 278.4
03 02:10 27.8 32 8.61 9.6 0 0 1011.1 0 19.0 22.2 33.4 87.7 82.5 284.4
03 02:00 27.8 33 8.88 10.1 0 6 1011.2 0 19.5 22.5 34.3 90.1 85.4 294.8
03 01:50 28.6 32 8.99 10.3 6 6 1011.2 0 19.7 22.5 34.4 90.2 85.8 296.1
03 01:40 28.2 33 9.07 10.4 11 11 1011.2 0 19.9 22.7 34.8 91.4 87.1 300.7
03 01:30 28.5 33 9.22 10.7 0 0 1011.4 0 20.2 22.8 35.2 92.4 88.5 305.4
03 01:20 28.7 34 9.61 11.3 0 0 1011.4 0 21.0 23.3 36.4 95.7 92.6 319.9
03 01:10 28.6 32 8.99 10.3 0 0 1011.4 0 19.7 22.5 34.4 90.3 85.8 296.2
03 01:00 28.9 32 9.14 10.6 0 0 1011.5 0 20.0 22.6 34.8 91.3 87.2 300.9
03 00:50 29.3 30 8.76 9.9 0 0 1011.5 0 19.2 22.0 33.4 87.5 82.6 285.0
03 00:40 29.6 30 8.9 10.2 0 0 1011.6 0 19.5 22.1 33.7 88.4 83.8 289.3
03 00:30 29.1 29 8.38 9.3 6 7 1011.8 0 18.4 21.6 32.2 84.4 78.7 271.4
03 00:20 29.4 30 8.81 10 6 6 1011.7 0 19.3 22.1 33.5 87.8 83.1 286.6
03 00:10 29.6 29 8.61 9.7 6 6 1011.8 0 18.9 21.8 32.8 85.9 80.7 278.4
03 00:00 29.8 28 8.4 9.3 9 11 1011.9 0 18.4 21.4 32.0 83.9 78.3 269.9
02 23:50 30.1 28 8.54 9.6 7 9 1011.8 0 18.7 21.5 32.3 84.8 79.5 274.1
02 23:40 30.9 27 8.6 9.7 7 7 1011.8 0 18.8 21.4 32.2 84.5 79.3 273.7
02 23:30 31 26 8.32 9.3 2 9 1011.8 0 18.2 21.1 31.3 82.0 76.3 263.1
02 23:20 31.6 25 8.26 9.2 0 0 1011.6 0 18.1 20.8 30.9 80.9 75.1 259.0
02 23:10 32.4 25 8.62 9.9 0 0 1011.5 0 18.8 21.1 31.7 83.1 78.1 269.5
02 23:00 31.9 24 8.06 8.8 6 7 1011.5 0 17.7 20.5 30.1 79.0 72.8 250.9
02 22:50 32.1 24 8.15 9 7 7 1011.3 0 17.8 20.6 30.3 79.5 73.5 253.5
02 22:40 32.6 23 8.02 8.8 7 7 1011.2 0 17.5 20.3 29.8 78.0 71.8 247.4
02 22:30 33.1 22 7.88 8.5 7 13 1011.3 0 17.2 20.0 29.2 76.4 70.0 241.0
02 22:20 32.2 24 8.19 9.1 9 11 1011.1 0 17.9 20.6 30.4 79.7 73.9 254.6
02 22:10 32.3 23 7.89 8.5 7 9 1011.1 0 17.3 20.2 29.5 77.2 70.7 243.6
02 22:00 32.5 23 7.98 8.7 7 9 1011.2 0 17.5 20.3 29.7 77.7 71.5 246.2
02 21:50 32.8 22 7.75 8.3 9 9 1011.1 0 17.0 19.9 28.9 75.6 68.9 237.3
02 21:40 33 23 8.19 9.1 0 0 1011 0 17.9 20.4 30.1 79.0 73.1 252.2
02 21:30 33 23 8.19 9.1 0 0 1011.1 0 17.9 20.4 30.1 79.0 73.1 252.2
02 21:20 33.4 22 8 8.8 0 0 1010.9 0 17.5 20.1 29.4 77.0 70.9 244.3
02 21:10 34.4 19 7.28 7.5 0 0 1010.9 0 16.0 19.0 27.0 70.5 63.1 216.8
02 21:00 34.7 19 7.4 7.7 6 9 1010.9 0 16.2 19.1 27.2 71.2 64.0 220.1
02 20:50 35.1 18 7.16 7.2 9 9 1010.7 0 15.7 18.7 26.4 69.0 61.4 211.0
02 20:40 34.8 19 7.44 7.8 7 9 1010.6 0 16.3 19.1 27.3 71.4 64.3 221.1
02 20:30 35.4 18 7.27 7.5 0 0 1010.5 0 15.9 18.8 26.6 69.5 62.2 213.9
02 20:20 36.2 17 7.16 7.3 0 6 1010.5 0 15.6 18.5 26.0 68.1 60.6 208.3
02 20:10 36.6 16 6.88 6.7 4 6 1010.4 0 15.1 18.1 25.1 65.6 57.7 198.2
02 20:00 37 16 7.02 7 9 13 1010.3 0 15.3 18.2 25.4 66.4 58.7 201.8
02 19:50 37.5 15 6.75 6.5 11 11 1010.2 0 14.8 17.8 24.5 64.0 55.9 192.0
02 19:40 38.3 14 6.56 6.1 6 9 1010.1 0 14.4 17.5 23.8 62.0 53.7 184.2
02 19:30 38.5 14 6.63 6.3 7 13 1010.1 0 14.5 17.5 23.9 62.4 54.2 186.0
02 19:20 39 13 6.31 5.6 9 11 1010 0 13.8 17.1 22.9 59.7 51.0 175.0
02 19:10 39.2 13 6.38 5.7 6 7 1010 0 14.0 17.1 23.0 60.1 51.5 176.8
02 19:00 39.3 13 6.41 5.8 9 15 1009.9 0 14.0 17.1 23.1 60.2 51.7 177.5
02 18:50 39.4 13 6.44 5.9 15 17 1009.9 0 14.1 17.1 23.1 60.4 51.9 178.2
02 18:40 39.5 13 6.48 6 11 13 1009.8 0 14.2 17.1 23.2 60.6 52.2 179.2
02 18:30 39.6 12 6.01 4.9 13 17 1009.7 0 13.2 16.6 22.0 57.2 48.1 164.6
02 18:20 39.8 13 6.57 6.2 9 11 1009.6 0 14.3 17.2 23.4 61.0 52.8 181.3
02 18:10 39.9 13 6.61 6.3 6 13 1009.6 0 14.4 17.2 23.5 61.2 53.1 182.3
02 18:00 39.8 13 6.57 6.2 13 22 1009.4 0 14.3 17.2 23.4 61.0 52.8 181.3
02 17:50 40 12 6.13 5.2 9 11 1009.4 0 13.4 16.7 22.2 57.8 48.9 167.5
02 17:40 39.9 12 6.1 5.1 6 7 1009.4 0 13.4 16.7 22.1 57.6 48.7 166.7
02 17:30 39.9 12 6.1 5.1 7 15 1009.5 0 13.4 16.7 22.1 57.6 48.7 166.8
02 17:20 40 12 6.13 5.2 13 15 1009.5 0 13.4 16.7 22.2 57.8 48.9 167.5
02 17:10 40.1 12 6.16 5.3 15 17 1009.5 0 13.5 16.7 22.2 57.9 49.1 168.2
02 17:00 39.9 12 6.1 5.1 7 13 1009.6 0 13.4 16.7 22.1 57.6 48.7 166.8
02 16:50 40 12 6.13 5.2 0 0 1009.6 0 13.4 16.7 22.2 57.8 48.9 167.5
02 16:40 39.7 12 6.04 5 7 7 1009.6 0 13.3 16.6 22.0 57.4 48.3 165.3
02 16:30 39.4 12 5.95 4.7 7 15 1009.7 0 13.1 16.6 21.9 56.9 47.7 163.2
02 16:20 40 12 6.13 5.2 11 15 1009.8 0 13.4 16.7 22.2 57.8 48.9 167.5
02 16:10 40.3 12 6.22 5.4 11 24 1009.8 0 13.6 16.7 22.3 58.2 49.5 169.7
02 16:00 40.3 12 6.22 5.4 15 26 1009.9 0 13.6 16.7 22.3 58.2 49.5 169.7
02 15:50 40.1 12 6.16 5.3 9 13 1010.1 0 13.5 16.7 22.2 58.0 49.1 168.3
02 15:40 40.4 12 6.25 5.5 11 13 1010.2 0 13.7 16.8 22.4 58.4 49.7 170.4
02 15:30 40 12 6.13 5.2 7 13 1010.1 0 13.4 16.7 22.2 57.8 48.9 167.6
02 15:20 39.8 12 6.07 5.1 9 9 1010.2 0 13.3 16.7 22.1 57.5 48.5 166.1
02 15:10 39.2 13 6.38 5.7 0 2 1010.3 0 14.0 17.1 23.1 60.1 51.6 176.8
02 15:00 39.4 13 6.44 5.9 6 15 1010.4 0 14.1 17.1 23.2 60.4 52.0 178.3

Last Refresh: 03-Dec-2021 07:44:37

Bureau of Meteorology